Have a Safe July 4th! 

Flight Track Log - Related Links

Times and Time Zones

All times are in EDT time to prevent confusion due to time zone crossing. See the UPS2844 flight status page for this flight to view local times or setup timezone preferences in your user account.

Time Position Orientation Groundspeed Altitude Reporting Facility
EDT Latitude Longitude Course Direction KTS MPH feet Rate Location/Type
Mon 04:49:29 PM 38.1373 -85.7345 181° South 197 227 2,100  Level FlightAware ADS-B
Mon 04:50:33 PM 38.1127 -85.8043 263° West 252 290 4,700 3,027 Climbing FlightAware ADS-B
Mon 04:51:20 PM 38.1068 -85.8635 263° West 260 299 7,700 3,468 Climbing FlightAware ADS-B
Mon 04:52:22 PM 38.0959 -85.9699 263° West 288 331 11,000 2,373 Climbing FlightAware ADS-B
Mon 04:53:34 PM 38.0833 -86.1131 262° West 374 430 13,000 1,786 Climbing FlightAware ADS-B
Mon 04:54:33 PM 38.0709 -86.2274 264° West 368 423 14,900 1,733 Climbing FlightAware ADS-B
Mon 04:55:04 PM 38.0669 -86.2736 264° West 359 413 15,600 3,111 Climbing Kansas City Center
Mon 04:55:54 PM 38.0672 -86.4011 270° West 363 418 19,100 2,625 Climbing Indianapolis Center
Mon 04:56:56 PM 38.0953 -86.5292 286° West 376 433 20,500 1,839 Climbing Indianapolis Center
Mon 04:57:58 PM 38.1233 -86.6600 285° West 389 448 22,900 1,902 Climbing Indianapolis Center
Mon 04:58:59 PM 38.1492 -86.8003 283° West 405 466 24,400 1,512 Climbing Indianapolis Center
Mon 05:00:01 PM 38.1792 -86.9431 285° West 412 474 26,000 774 Climbing Indianapolis Center
Mon 05:01:03 PM 38.2103 -87.0892 285° West 414 476 26,000  Level Indianapolis Center
Mon 05:02:05 PM 38.2422 -87.2403 285° West 416 479 26,000 732 Level Indianapolis Center
Mon 05:03:06 PM 38.2725 -87.3861 285° West 435 501 27,500 976 Climbing Indianapolis Center
Mon 05:04:08 PM 38.3039 -87.5372 285° West 437 503 28,000 1,790 Climbing Indianapolis Center
Mon 05:05:10 PM 38.3408 -87.7153 285° West 419 482 31,200 1,935 Climbing Indianapolis Center
Mon 05:06:12 PM 38.3700 -87.8600 284° West 425 489 32,000 390 Climbing Indianapolis Center
Mon 05:07:13 PM 38.4003 -88.0086 285° West 430 495 32,000  Level Indianapolis Center
Mon 05:08:15 PM 38.4286 -88.1492 284° West 409 471 32,000 647 Level Indianapolis Center
Mon 05:09:32 PM 38.4636 -88.3225 285° West 412 474 33,500 1,586 Climbing Kansas City Center
Mon 05:10:35 PM 38.4900 -88.4575 284° West 391 450 35,700 1,200 Climbing Kansas City Center
Mon 05:11:37 PM 38.5161 -88.5903 284° West 388 447 36,000 146 Climbing Kansas City Center
Mon 05:12:38 PM 38.5467 -88.7461 284° West 386 444 36,000  Level Kansas City Center
Mon 05:13:42 PM 38.5744 -88.8881 284° West 385 443 36,000  Level Kansas City Center
Mon 05:14:42 PM 38.5989 -89.0147 284° West 385 443 36,000  Level Kansas City Center
Mon 05:15:43 PM 38.6244 -89.1489 284° West 385 443 36,000  Level Kansas City Center
Mon 05:16:47 PM 38.6500 -89.2825 284° West 386 444 36,000  Level Kansas City Center
Mon 05:17:48 PM 38.6756 -89.4186 284° West 389 448 36,000  Level Kansas City Center
Mon 05:18:51 PM 38.7019 -89.5567 284° West 396 456 36,000  Level Kansas City Center
Mon 05:19:52 PM 38.7328 -89.7225 283° West 405 466 36,000  Level Kansas City Center
Mon 05:20:56 PM 38.7589 -89.8653 283° West 411 473 36,000  Level Kansas City Center
Mon 05:21:58 PM 38.7864 -90.0133 283° West 414 476 36,000  Level Kansas City Center
Mon 05:23:00 PM 38.8128 -90.1592 283° West 416 479 36,000  Level Kansas City Center
Mon 05:24:01 PM 38.8392 -90.3056 283° West 418 481 36,000  Level Kansas City Center
Mon 05:25:04 PM 38.8664 -90.4561 283° West 421 484 36,000  Level Kansas City Center
Mon 05:26:06 PM 38.8978 -90.6328 283° West 422 486 36,000  Level Kansas City Center
Mon 05:27:07 PM 38.9200 -90.7592 283° West 422 486 36,000  Level Kansas City Center
Mon 05:28:10 PM 38.9453 -90.9039 283° West 420 483 36,000  Level Kansas City Center
Mon 05:29:14 PM 38.9753 -91.0756 283° West 416 479 36,000  Level Kansas City Center
Mon 05:34:46 PM 39.1093 -91.8680 282° West 434 499 36,000  Level FlightAware ADS-B (KSDL)
Mon 05:35:29 PM 39.1296 -91.9913 282° West 434 499 36,000  Level FlightAware ADS-B (KSDL)
Mon 05:36:10 PM 39.1507 -92.1194 282° West 434 499 36,000  Level FlightAware ADS-B (KSDL)
Mon 05:36:49 PM 39.1666 -92.2179 282° West 435 501 36,000  Level FlightAware ADS-B (KSDL)
Mon 05:37:28 PM 39.1827 -92.3185 282° West 435 501 36,000  Level FlightAware ADS-B (KSDL)
Mon 05:38:09 PM 39.1957 -92.3984 282° West 436 502 36,000  Level FlightAware ADS-B (KSDL)
Mon 05:38:50 PM 39.2156 -92.5231 282° West 438 504 36,000  Level FlightAware ADS-B (KSDL)
Mon 05:39:29 PM 39.2319 -92.6258 281° West 439 505 36,000  Level FlightAware ADS-B (KSDL)
Mon 05:40:10 PM 39.2477 -92.7258 281° West 439 505 36,000  Level FlightAware ADS-B (KSDL)
Mon 05:40:50 PM 39.2646 -92.8331 282° West 440 506 36,000  Level FlightAware ADS-B (KSDL)
Mon 05:41:21 PM 39.2757 -92.9044 281° West 441 507 36,000  Level FlightAware ADS-B (KSDL)
Mon 05:42:11 PM 39.2969 -93.0407 281° West 441 507 36,000  Level FlightAware ADS-B (KSDL)
Mon 05:42:42 PM 39.3091 -93.1199 281° West 442 509 36,000  Level FlightAware ADS-B (KSDL)
Mon 05:43:33 PM 39.3295 -93.2534 281° West 441 507 36,000  Level FlightAware ADS-B (KSDL)
Mon 05:44:32 PM 39.3494 -93.3839 281° West 440 506 36,000  Level Minneapolis Center
Mon 05:45:46 PM 39.3778 -93.5744 281° West 440 506 36,000  Level Kansas City Center
Mon 05:46:47 PM 39.4036 -93.7464 281° West 440 506 36,000  Level Kansas City Center
Mon 05:47:51 PM 39.4239 -93.8844 281° West 439 505 36,000  Level Kansas City Center
Mon 05:48:52 PM 39.4503 -94.0656 281° West 439 505 36,000  Level Kansas City Center
Mon 05:49:53 PM 39.4725 -94.2192 281° West 438 504 36,000  Level Kansas City Center
Mon 05:50:57 PM 39.4944 -94.3731 281° West 437 503 36,000  Level Kansas City Center
Mon 05:51:57 PM 39.5161 -94.5264 280° West 436 502 36,000  Level Kansas City Center
Mon 05:53:02 PM 39.5375 -94.6792 280° West 436 502 36,000  Level Kansas City Center
Mon 05:54:02 PM 39.5586 -94.8322 280° West 435 501 36,000  Level Kansas City Center
Mon 05:55:06 PM 39.5836 -95.0144 280° West 435 501 36,000  Level Kansas City Center
Mon 05:56:06 PM 39.6044 -95.1664 280° West 434 499 36,000  Level Kansas City Center
Mon 05:57:09 PM 39.6247 -95.3183 280° West 434 499 36,000  Level Kansas City Center
Mon 05:58:10 PM 39.6450 -95.4708 280° West 434 499 36,000  Level Kansas City Center
Mon 05:59:15 PM 39.6692 -95.6550 280° West 434 499 36,000  Level Kansas City Center
Mon 06:00:15 PM 39.6892 -95.8089 280° West 435 501 36,000  Level Kansas City Center
Mon 06:01:17 PM 39.7089 -95.9631 279° West 435 501 36,000  Level Kansas City Center
Mon 06:02:19 PM 39.7286 -96.1178 279° West 435 501 36,000  Level Kansas City Center
Mon 06:03:23 PM 39.7481 -96.2725 279° West 436 502 36,000  Level Kansas City Center
Mon 06:04:23 PM 39.7714 -96.4594 279° West 437 503 36,000  Level Kansas City Center
Mon 06:05:27 PM 39.7908 -96.6189 279° West 438 504 36,000  Level Kansas City Center
Mon 06:06:29 PM 39.8078 -96.7583 279° West 439 505 36,000  Level Kansas City Center
Mon 06:07:30 PM 39.8303 -96.9478 279° West 440 506 36,000  Level Kansas City Center
Mon 06:08:33 PM 39.8492 -97.1061 279° West 441 507 36,000  Level Kansas City Center
Mon 06:09:34 PM 39.8675 -97.2653 279° West 442 509 36,000  Level Kansas City Center
Mon 06:10:26 PM 39.8819 -97.3900 279° West 443 510 36,000  Level Minneapolis Center
Mon 06:11:28 PM 39.9000 -97.5494 278° West 444 511 36,000  Level Minneapolis Center
Mon 06:12:30 PM 39.9222 -97.7447 279° West 445 512 36,000  Level Minneapolis Center
Mon 06:13:32 PM 39.9394 -97.9014 278° West 445 512 36,000  Level Minneapolis Center
Mon 06:14:34 PM 39.9569 -98.0614 278° West 445 512 36,000  Level Minneapolis Center
Mon 06:15:37 PM 39.9744 -98.2225 278° West 446 513 36,000  Level Minneapolis Center
Mon 06:16:39 PM 39.9914 -98.3836 278° West 447 514 36,000  Level Minneapolis Center
Mon 06:17:41 PM 40.0086 -98.5453 278° West 448 516 36,000  Level Minneapolis Center
Mon 06:18:43 PM 40.0272 -98.7400 277° West 449 517 36,000  Level Minneapolis Center
Mon 06:19:45 PM 40.0361 -98.9039 274° West 450 518 36,000  Level Minneapolis Center
Mon 06:20:47 PM 40.0422 -99.0681 273° West 451 519 36,000  Level Denver Center
Mon 06:21:49 PM 40.0481 -99.2319 273° West 451 519 36,000  Level Denver Center
Mon 06:22:52 PM 40.0550 -99.3972 273° West 452 520 36,000  Level Minneapolis Center
Mon 06:23:53 PM 40.0606 -99.5619 273° West 452 520 36,000  Level Denver Center
Mon 06:24:55 PM 40.0669 -99.7278 273° West 453 521 36,000  Level Denver Center
Mon 06:25:57 PM 40.0733 -99.9122 273° West 456 525 36,000  Level Denver Center
Mon 06:31:38 PM 40.0056 -100.8690 256° West 469 540 36,000  Level FlightAware ADS-B (EGNT / NCL)
Mon 06:32:46 PM 39.9729 -101.0512 257° West 467 537 36,000  Level FlightAware ADS-B (EGNT / NCL)
Mon 06:33:25 PM 39.9533 -101.1625 257° West 466 536 36,000  Level FlightAware ADS-B (EGNT / NCL)
Mon 06:34:07 PM 39.9431 -101.2202 257° West 466 536 36,000  Level FlightAware ADS-B (EGNT / NCL)
Mon 06:34:49 PM 39.9156 -101.3814 258° West 466 536 36,000  Level FlightAware ADS-B (EGNT / NCL)
Mon 06:35:19 PM 39.9047 -101.4467 258° West 467 537 36,000  Level FlightAware ADS-B (EGNT / NCL)
Mon 06:35:51 PM 39.8870 -101.5525 258° West 468 539 36,000  Level FlightAware ADS-B (EGNT / NCL)
Mon 06:36:52 PM 39.8722 -101.6782 263° West 468 539 36,000  Level FlightAware ADS-B (EGNT / NCL)
Mon 06:37:22 PM 39.8608 -101.8120 267° West 468 539 36,000  Level FlightAware ADS-B (EGNT / NCL)
Mon 06:38:05 PM 39.8586 -101.9341 269° West 468 539 36,000  Level FlightAware ADS-B (EGNT / NCL)
Mon 06:38:44 PM 39.8573 -102.0231 269° West 468 539 36,000  Level FlightAware ADS-B (EGNT / NCL)
Mon 06:39:14 PM 39.8571 -102.1169 272° West 469 540 36,000  Level FlightAware ADS-B (EGNT / NCL)
Mon 06:40:06 PM 39.8670 -102.2729 274° West 468 539 36,000  Level FlightAware ADS-B (EGNT / NCL)
Mon 06:40:53 PM 39.8740 -102.3986 274° West 468 539 36,000  Level FlightAware ADS-B (EGNT / NCL)
Mon 06:41:29 PM 39.8799 -102.5020 274° West 468 539 36,000  Level FlightAware ADS-B (EGNT / NCL)
Mon 06:42:03 PM 39.8858 -102.6026 275° West 470 541 36,000  Level FlightAware ADS-B (EHAM / AMS)
Mon 06:42:38 PM 39.8914 -102.6991 274° West 471 542 36,000  Level FlightAware ADS-B (EHAM / AMS)
Mon 06:43:08 PM 39.8962 -102.7856 274° West 472 543 36,000  Level FlightAware ADS-B (EGNT / NCL)
Mon 06:43:42 PM 39.9014 -102.8779 274° West 472 543 36,000  Level FlightAware ADS-B (EHAM / AMS)
Mon 06:44:31 PM 39.9087 -103.0126 274° West 471 542 36,000  Level FlightAware ADS-B (EGNT / NCL)
Mon 06:45:12 PM 39.9153 -103.1360 274° West 471 542 36,000  Level FlightAware ADS-B (EGNT / NCL)
Mon 06:45:48 PM 39.9204 -103.2346 274° West 471 542 36,000  Level FlightAware ADS-B (EHAM / AMS)
Mon 06:46:29 PM 39.9265 -103.3518 274° West 471 542 36,000  Level FlightAware ADS-B (EHAM / AMS)
Mon 06:47:09 PM 39.9319 -103.4626 274° West 471 542 36,000  Level FlightAware ADS-B (EHAM / AMS)
Mon 06:47:50 PM 39.9376 -103.5778 274° West 470 541 36,000  Level FlightAware ADS-B (EHAM / AMS)
Mon 06:48:34 PM 39.9437 -103.7041 274° West 469 540 36,000  Level FlightAware ADS-B (EGNT / NCL)
Mon 06:49:04 PM 39.9476 -103.7853 273° West 468 539 36,000  Level FlightAware ADS-B (EGNT / NCL)
Mon 06:49:36 PM 39.9518 -103.8769 273° West 467 537 36,000  Level FlightAware ADS-B (EGNT / NCL)
Mon 06:50:09 PM 39.9560 -103.9685 273° West 466 536 36,000  Level FlightAware ADS-B (EHAM / AMS)
Mon 06:50:44 PM 39.9605 -104.0692 273° West 465 535 36,000  Level FlightAware ADS-B (EGNT / NCL)
Mon 06:51:14 PM 39.9642 -104.1520 273° West 464 534 36,000  Level FlightAware ADS-B (EHAM / AMS)
Mon 06:51:48 PM 39.9682 -104.2453 273° West 463 533 36,000  Level FlightAware ADS-B (EGNT / NCL)
Mon 06:52:19 PM 39.9719 -104.3317 273° West 461 531 36,000  Level FlightAware ADS-B (EGNT / NCL)
Mon 06:52:49 PM 39.9753 -104.4135 273° West 460 529 36,000  Level FlightAware ADS-B (EGNT / NCL)
Mon 06:53:27 PM 39.9797 -104.5200 273° West 458 527 36,000  Level FlightAware ADS-B (EHAM / AMS)
Mon 06:53:59 PM 39.9832 -104.6073 273° West 456 525 36,000  Level FlightAware ADS-B (EHAM / AMS)
Mon 06:54:29 PM 39.9863 -104.6846 273° West 455 524 36,000  Level FlightAware ADS-B (EHAM / AMS)
Mon 06:55:14 PM 39.9911 -104.8111 273° West 452 520 36,000  Level FlightAware ADS-B (EHAM / AMS)
Mon 06:55:44 PM 39.9941 -104.8928 273° West 451 519 36,000  Level FlightAware ADS-B (EHAM / AMS)
Mon 06:56:18 PM 39.9975 -104.9830 273° West 450 518 36,000  Level FlightAware ADS-B (EHAM / AMS)
Mon 06:56:48 PM 40.0004 -105.0642 273° West 449 517 36,000  Level FlightAware ADS-B (EHAM / AMS)
Mon 06:57:20 PM 40.0036 -105.1508 273° West 447 514 36,000  Level FlightAware ADS-B (EGNT / NCL)
Mon 06:57:50 PM 40.0062 -105.2289 272° West 446 513 36,000  Level FlightAware ADS-B (EGNT / NCL)
Mon 06:58:26 PM 40.0096 -105.3277 273° West 445 512 36,000  Level FlightAware ADS-B (EHAM / AMS)
Mon 06:58:58 PM 40.0124 -105.4134 273° West 443 510 36,000  Level FlightAware ADS-B (EPGD / GDN)
Mon 06:59:29 PM 40.0150 -105.4925 272° West 442 509 36,000  Level FlightAware ADS-B (EHAM / AMS)
Mon 06:59:59 PM 40.0176 -105.5751 272° West 441 507 36,000  Level FlightAware ADS-B (EHAM / AMS)
Mon 07:00:30 PM 40.0201 -105.6556 272° West 441 507 36,000  Level FlightAware ADS-B (EGNT / NCL)
Mon 07:01:01 PM 40.0227 -105.7397 272° West 441 507 36,000  Level FlightAware ADS-B (EGNT / NCL)
Mon 07:01:35 PM 40.0253 -105.8305 272° West 441 507 36,000  Level FlightAware ADS-B (EGNT / NCL)
Mon 07:02:08 PM 40.0279 -105.9171 272° West 441 507 36,000  Level FlightAware ADS-B (EGNT / NCL)
Mon 07:02:47 PM 40.0306 -106.0126 272° West 442 509 36,000  Level FlightAware ADS-B (EGNT / NCL)
Mon 07:03:18 PM 40.0329 -106.1042 272° West 441 507 36,000  Level FlightAware ADS-B (EHAM / AMS)
Mon 07:03:51 PM 40.0353 -106.1897 272° West 441 507 36,000  Level FlightAware ADS-B (EGNT / NCL)
Mon 07:04:21 PM 40.0373 -106.2706 272° West 441 507 36,000  Level FlightAware ADS-B (EHAM / AMS)
Mon 07:04:53 PM 40.0394 -106.3548 272° West 441 507 36,000  Level FlightAware ADS-B (EHAM / AMS)
Mon 07:05:30 PM 40.0419 -106.4528 272° West 441 507 36,000  Level FlightAware ADS-B (EDXW / GWT)
Mon 07:06:06 PM 40.0439 -106.5461 272° West 441 507 36,000  Level FlightAware ADS-B (EHAM / AMS)
Mon 07:06:37 PM 40.0459 -106.6281 272° West 441 507 36,000  Level FlightAware ADS-B (EGNT / NCL)
Mon 07:07:06 PM 40.0475 -106.7070 272° West 442 509 36,000  Level FlightAware ADS-B (EGNT / NCL)
Mon 07:07:38 PM 40.0493 -106.7927 272° West 441 507 36,000  Level FlightAware ADS-B (EDXW / GWT)
Mon 07:08:14 PM 40.0513 -106.8870 272° West 440 506 36,000  Level FlightAware ADS-B (EHAM / AMS)
Mon 07:08:58 PM 40.0537 -107.0052 271° West 439 505 36,000  Level FlightAware ADS-B
Mon 07:09:28 PM 40.0549 -107.0754 271° West 438 504 36,000  Level FlightAware ADS-B
Mon 07:09:59 PM 40.0565 -107.1642 271° West 437 503 36,000  Level FlightAware ADS-B
Mon 07:10:29 PM 40.0579 -107.2447 271° West 437 503 36,000  Level FlightAware ADS-B
Mon 07:10:59 PM 40.0593 -107.3232 271° West 436 502 36,000  Level FlightAware ADS-B
Mon 07:11:29 PM 40.0604 -107.3997 271° West 436 502 36,000  Level FlightAware ADS-B
Mon 07:12:01 PM 40.0612 -107.4485 271° West 436 502 36,000  Level FlightAware ADS-B (EDXW / GWT)
Mon 07:12:32 PM 40.0630 -107.5669 271° West 437 503 36,000  Level FlightAware ADS-B
Mon 07:13:08 PM 40.0640 -107.6490 271° West 437 503 36,000  Level FlightAware ADS-B
Mon 07:13:38 PM 40.0652 -107.7372 271° West 438 504 36,000  Level FlightAware ADS-B
Mon 07:14:18 PM 40.0666 -107.8446 271° West 438 504 36,000  Level FlightAware ADS-B
Mon 07:14:51 PM 40.0676 -107.9341 271° West 439 505 36,000  Level FlightAware ADS-B
Mon 07:15:22 PM 40.0709 -108.0142 274° West 440 506 36,000  Level FlightAware ADS-B
Mon 07:15:52 PM 40.0752 -108.0955 274° West 441 507 36,000  Level FlightAware ADS-B
Mon 07:16:25 PM 40.0796 -108.1841 274° West 441 507 36,000  Level FlightAware ADS-B
Mon 07:16:56 PM 40.0832 -108.2641 273° West 441 507 36,000  Level FlightAware ADS-B
Mon 07:17:27 PM 40.0866 -108.3464 273° West 441 507 36,000  Level FlightAware ADS-B
Mon 07:18:07 PM 40.0911 -108.4548 273° West 441 507 36,000  Level FlightAware ADS-B
Mon 07:18:38 PM 40.0943 -108.5345 273° West 441 507 36,000  Level FlightAware ADS-B
Mon 07:19:11 PM 40.0978 -108.6223 273° West 441 507 36,000  Level FlightAware ADS-B
Mon 07:19:41 PM 40.1011 -108.7032 273° West 442 509 36,000  Level FlightAware ADS-B
Mon 07:20:15 PM 40.1046 -108.7912 273° West 443 510 36,000  Level FlightAware ADS-B
Mon 07:20:46 PM 40.1078 -108.8745 273° West 444 511 36,000  Level FlightAware ADS-B
Mon 07:21:19 PM 40.1109 -108.9540 273° West 444 511 36,000  Level FlightAware ADS-B
Mon 07:21:49 PM 40.1141 -109.0417 273° West 444 511 36,000  Level FlightAware ADS-B
Mon 07:22:24 PM 40.1174 -109.1335 273° West 443 510 36,000  Level FlightAware ADS-B
Mon 07:23:03 PM 40.1213 -109.2411 273° West 444 511 36,000  Level FlightAware ADS-B
Mon 07:23:36 PM 40.1244 -109.3288 273° West 444 511 36,000  Level FlightAware ADS-B
Mon 07:24:06 PM 40.1271 -109.4081 273° West 444 511 36,000 -91 Level FlightAware ADS-B (EDXW / GWT)
Mon 07:24:42 PM 40.1303 -109.5031 273° West 443 510 35,900 -600 Descending FlightAware ADS-B
Mon 07:25:16 PM 40.1331 -109.5937 273° West 443 510 35,300 -1,378 Descending FlightAware ADS-B (EDXW / GWT)
Mon 07:25:56 PM 40.1369 -109.7052 272° West 455 524 34,200 -1,583 Descending FlightAware ADS-B
Mon 07:26:28 PM 40.1394 -109.7901 272° West 462 532 33,400 -1,352 Descending FlightAware ADS-B
Mon 07:27:07 PM 40.1425 -109.8982 273° West 466 536 32,600 -1,054 Descending FlightAware ADS-B
Mon 07:27:42 PM 40.1454 -109.9982 272° West 463 533 32,100 -985 Descending FlightAware ADS-B (EDXW / GWT)
Mon 07:28:14 PM 40.1480 -110.0870 272° West 463 533 31,500 -1,281 Descending FlightAware ADS-B
Mon 07:29:11 PM 40.1490 -110.2398 269° West 471 542 30,200 -938 Descending FlightAware ADS-B
Mon 07:29:50 PM 40.1474 -110.3406 269° West 472 543 30,000 -160 Descending FlightAware ADS-B
Mon 07:30:26 PM 40.1463 -110.4559 274° West 476 548 30,000 -90 Level FlightAware ADS-B (KGUC)
Mon 07:30:57 PM 40.1564 -110.5427 280° West 471 542 29,900 -1,279 Descending FlightAware ADS-B (EDXW / GWT)
Mon 07:31:27 PM 40.1676 -110.6291 280° West 465 535 28,700 -2,613 Descending FlightAware ADS-B
Mon 07:31:59 PM 40.1800 -110.7218 280° West 458 527 27,200 -2,620 Descending FlightAware ADS-B
Mon 07:32:38 PM 40.1918 -110.8166 279° West 447 514 25,600 -2,354 Descending FlightAware ADS-B
Mon 07:33:18 PM 40.2061 -110.9296 279° West 438 504 24,100 -2,354 Descending FlightAware ADS-B
Mon 07:33:57 PM 40.2182 -111.0275 277° West 427 491 22,500 -2,189 Descending FlightAware ADS-B
Mon 07:34:32 PM 40.2159 -111.1082 261° West 414 476 21,400 -2,400 Descending FlightAware ADS-B
Mon 07:35:12 PM 40.1995 -111.2115 257° West 392 451 19,500 -2,548 Descending FlightAware ADS-B
Mon 07:35:45 PM 40.1866 -111.2870 262° West 369 425 18,300 -2,270 Descending FlightAware ADS-B
Mon 07:36:26 PM 40.1743 -111.3788 256° West 391 450 16,700 -1,775 Descending FlightAware ADS-B
Mon 07:36:56 PM 40.1611 -111.4384 248° West 374 430 16,200 -658 Descending FlightAware ADS-B
Mon 07:37:39 PM 40.1377 -111.5329 266° West 343 395 15,900 -444 Descending FlightAware ADS-B
Mon 07:37:50 PM 40.1386 -111.5561 279° West 335 386 15,800 -194 Descending FlightAware ADS-B
Mon 07:38:10 PM 40.1471 -111.5925 295° West 328 377 15,800 -700 Level FlightAware ADS-B
Mon 07:38:50 PM 40.1723 -111.6635 297° West 321 369 15,100 -1,865 Descending FlightAware ADS-B
Mon 07:39:24 PM 40.2014 -111.7134 314° West 323 372 13,500 -2,560 Descending FlightAware ADS-B
Mon 07:40:05 PM 40.2458 -111.7724 315° West 310 357 11,900 -1,385 Descending FlightAware ADS-B
Mon 07:40:42 PM 40.2817 -111.8157 319° Northwest 294 338 11,700 -632 Descending FlightAware ADS-B
Mon 07:41:21 PM 40.3247 -111.8643 320° Northwest 305 351 11,100 -667 Descending FlightAware ADS-B
Mon 07:41:54 PM 40.3605 -111.9021 321° Northwest 297 342 10,900 -226 Descending FlightAware ADS-B
Mon 07:42:14 PM 40.3839 -111.9225 335° Northwest 307 353 10,900 -150 Level FlightAware ADS-B
Mon 07:42:34 PM 40.4113 -111.9311 355° North 309 356 10,800 -1,258 Descending FlightAware ADS-B
Mon 07:43:16 PM 40.4719 -111.9384 355° North 309 356 9,600 -1,645 Descending FlightAware ADS-B
Mon 07:43:36 PM 40.4966 -111.9411 355° North 296 341 9,100 -1,500 Descending FlightAware ADS-B
Mon 07:43:56 PM 40.5254 -111.9444 355° North 283 326 8,600 -1,500 Descending FlightAware ADS-B
Mon 07:44:12 PM 40.5467 -111.9468 355° North 272 313 8,200 -1,455 Descending FlightAware ADS-B
Mon 07:44:29 PM 40.5661 -111.9491 355° North 261 300 7,800 -1,297 Descending FlightAware ADS-B
Mon 07:44:49 PM 40.5894 -111.9517 355° North 251 289 7,400 -1,231 Descending FlightAware ADS-B
Mon 07:45:08 PM 40.6130 -111.9544 355° North 247 284 7,000 -1,297 Descending FlightAware ADS-B
Mon 07:45:26 PM 40.6331 -111.9568 355° North 243 280 6,600 -1,273 Descending FlightAware ADS-B
Mon 07:45:41 PM 40.6491 -111.9586 355° North 231 266 6,300 -1,024 Descending FlightAware ADS-B (KBTF)
Mon 07:46:07 PM 40.6742 -111.9615 355° North 194 223 5,900 -894 Descending FlightAware ADS-B
Mon 07:46:28 PM 40.6923 -111.9637 355° North 178 205 5,600 -750 Descending FlightAware ADS-B (KBTF)
Mon 07:46:47 PM 40.7073 -111.9650 357° North 160 184 5,400 -732 Descending FlightAware ADS-B (KBTF)
Mon 07:47:09 PM 40.7229 -111.9670 353° North 146 168 5,100 -857 Descending FlightAware ADS-B (KBTF)
Mon 07:47:29 PM 40.7368 -111.9688 355° North 151 174 4,800 -789 Descending FlightAware ADS-B (KBTF)
Mon 07:47:47 PM 40.7491 -111.9702 355° North 150 173 4,600 -750 Descending FlightAware ADS-B (KBTF)
Mon 07:48:09 PM 40.7641 -111.9719 355° North 146 168 4,300 -818 Descending FlightAware ADS-B (KBTF)

Login

Don't have an account? Register now (free) for customized features, flight alerts, and more!